sensor_id;sensor_type;location;lat;lon;timestamp;temperature;humidity
12746;DHT22;6437;53.686;10.030;2022-12-28T00:02:25;6.40;99.90
12746;DHT22;6437;53.686;10.030;2022-12-28T00:05:26;6.40;99.90
12746;DHT22;6437;53.686;10.030;2022-12-28T00:08:30;6.50;99.90
12746;DHT22;6437;53.686;10.030;2022-12-28T00:11:32;6.40;99.90
12746;DHT22;6437;53.686;10.030;2022-12-28T00:14:33;7.10;99.90
12746;DHT22;6437;53.686;10.030;2022-12-28T00:17:35;6.40;99.90
12746;DHT22;6437;53.686;10.030;2022-12-28T00:20:37;7.30;99.90
12746;DHT22;6437;53.686;10.030;2022-12-28T00:23:40;6.50;99.90
12746;DHT22;6437;53.686;10.030;2022-12-28T00:26:42;6.50;99.90
12746;DHT22;6437;53.686;10.030;2022-12-28T00:29:44;6.50;99.90
12746;DHT22;6437;53.686;10.030;2022-12-28T00:32:45;6.50;99.90
12746;DHT22;6437;53.686;10.030;2022-12-28T00:35:52;6.50;99.90
12746;DHT22;6437;53.686;10.030;2022-12-28T00:38:55;6.50;99.90
12746;DHT22;6437;53.686;10.030;2022-12-28T00:41:57;6.50;99.90
12746;DHT22;6437;53.686;10.030;2022-12-28T00:44:59;6.50;99.90
12746;DHT22;6437;53.686;10.030;2022-12-28T00:48:00;6.50;99.90
12746;DHT22;6437;53.686;10.030;2022-12-28T00:51:03;6.50;99.90
12746;DHT22;6437;53.686;10.030;2022-12-28T00:54:06;6.50;99.90
12746;DHT22;6437;53.686;10.030;2022-12-28T00:57:08;6.50;99.90
12746;DHT22;6437;53.686;10.030;2022-12-28T01:00:11;6.50;99.90
12746;DHT22;6437;53.686;10.030;2022-12-28T01:03:13;6.50;99.90
12746;DHT22;6437;53.686;10.030;2022-12-28T01:06:16;6.50;99.90
12746;DHT22;6437;53.686;10.030;2022-12-28T01:09:20;6.50;99.90
12746;DHT22;6437;53.686;10.030;2022-12-28T01:12:21;6.40;99.90
12746;DHT22;6437;53.686;10.030;2022-12-28T01:15:23;6.40;99.90
12746;DHT22;6437;53.686;10.030;2022-12-28T01:18:25;6.40;99.90
12746;DHT22;6437;53.686;10.030;2022-12-28T01:21:29;6.40;99.90
12746;DHT22;6437;53.686;10.030;2022-12-28T01:24:33;6.40;99.90
12746;DHT22;6437;53.686;10.030;2022-12-28T01:27:34;6.40;99.90
12746;DHT22;6437;53.686;10.030;2022-12-28T01:30:36;6.40;99.90
12746;DHT22;6437;53.686;10.030;2022-12-28T01:33:38;6.50;99.90
12746;DHT22;6437;53.686;10.030;2022-12-28T01:36:40;6.50;99.90
12746;DHT22;6437;53.686;10.030;2022-12-28T01:39:44;6.50;99.90
12746;DHT22;6437;53.686;10.030;2022-12-28T01:42:45;6.40;99.90
12746;DHT22;6437;53.686;10.030;2022-12-28T01:45:49;6.50;99.90
12746;DHT22;6437;53.686;10.030;2022-12-28T01:48:57;6.40;99.90
12746;DHT22;6437;53.686;10.030;2022-12-28T01:52:04;6.40;99.90
12746;DHT22;6437;53.686;10.030;2022-12-28T01:55:11;6.50;99.90
12746;DHT22;6437;53.686;10.030;2022-12-28T01:58:18;6.50;99.90
12746;DHT22;6437;53.686;10.030;2022-12-28T02:01:22;6.50;99.90
12746;DHT22;6437;53.686;10.030;2022-12-28T02:04:29;6.50;99.90
12746;DHT22;6437;53.686;10.030;2022-12-28T02:07:37;6.50;99.90
12746;DHT22;6437;53.686;10.030;2022-12-28T02:10:42;6.50;99.90
12746;DHT22;6437;53.686;10.030;2022-12-28T02:13:47;6.50;99.90
12746;DHT22;6437;53.686;10.030;2022-12-28T02:16:49;6.40;99.90
12746;DHT22;6437;53.686;10.030;2022-12-28T02:19:51;6.40;99.90
12746;DHT22;6437;53.686;10.030;2022-12-28T02:23:30;6.40;99.90
12746;DHT22;6437;53.686;10.030;2022-12-28T02:26:46;6.40;99.90
12746;DHT22;6437;53.686;10.030;2022-12-28T02:30:00;6.40;99.90
12746;DHT22;6437;53.686;10.030;2022-12-28T02:33:07;6.40;99.90
12746;DHT22;6437;53.686;10.030;2022-12-28T02:36:15;6.40;99.90
12746;DHT22;6437;53.686;10.030;2022-12-28T02:39:21;6.40;99.90
12746;DHT22;6437;53.686;10.030;2022-12-28T02:42:24;6.30;99.90
12746;DHT22;6437;53.686;10.030;2022-12-28T02:45:34;6.30;99.90
12746;DHT22;6437;53.686;10.030;2022-12-28T02:48:53;6.30;99.90
12746;DHT22;6437;53.686;10.030;2022-12-28T02:52:19;6.20;99.90
12746;DHT22;6437;53.686;10.030;2022-12-28T02:55:34;6.20;99.90
12746;DHT22;6437;53.686;10.030;2022-12-28T02:59:28;6.20;99.90
12746;DHT22;6437;53.686;10.030;2022-12-28T03:02:54;6.20;99.90
12746;DHT22;6437;53.686;10.030;2022-12-28T03:06:09;6.20;99.90
12746;DHT22;6437;53.686;10.030;2022-12-28T03:09:37;6.10;99.90
12746;DHT22;6437;53.686;10.030;2022-12-28T03:12:45;6.10;99.90
12746;DHT22;6437;53.686;10.030;2022-12-28T03:15:49;6.10;99.90
12746;DHT22;6437;53.686;10.030;2022-12-28T03:18:56;6.10;99.90
12746;DHT22;6437;53.686;10.030;2022-12-28T03:22:18;6.10;99.90
12746;DHT22;6437;53.686;10.030;2022-12-28T03:25:42;6.10;99.90
12746;DHT22;6437;53.686;10.030;2022-12-28T03:29:05;6.00;99.90
12746;DHT22;6437;53.686;10.030;2022-12-28T03:32:26;6.10;99.90
12746;DHT22;6437;53.686;10.030;2022-12-28T03:35:36;6.00;99.90
12746;DHT22;6437;53.686;10.030;2022-12-28T03:38:46;6.00;99.90
12746;DHT22;6437;53.686;10.030;2022-12-28T03:41:51;6.60;99.90
12746;DHT22;6437;53.686;10.030;2022-12-28T03:45:28;6.00;99.90
12746;DHT22;6437;53.686;10.030;2022-12-28T03:48:32;6.00;99.90
12746;DHT22;6437;53.686;10.030;2022-12-28T03:51:38;6.00;99.90
12746;DHT22;6437;53.686;10.030;2022-12-28T03:54:41;6.00;99.90
12746;DHT22;6437;53.686;10.030;2022-12-28T03:57:43;6.00;99.90
12746;DHT22;6437;53.686;10.030;2022-12-28T04:00:45;5.90;99.90
12746;DHT22;6437;53.686;10.030;2022-12-28T04:03:47;6.00;99.90
12746;DHT22;6437;53.686;10.030;2022-12-28T04:06:50;6.00;99.90
12746;DHT22;6437;53.686;10.030;2022-12-28T04:09:52;6.00;99.90
12746;DHT22;6437;53.686;10.030;2022-12-28T04:12:54;6.00;99.90
12746;DHT22;6437;53.686;10.030;2022-12-28T04:15:58;6.00;99.90
12746;DHT22;6437;53.686;10.030;2022-12-28T04:19:00;5.90;99.90
12746;DHT22;6437;53.686;10.030;2022-12-28T04:22:04;5.90;99.90
12746;DHT22;6437;53.686;10.030;2022-12-28T04:25:06;6.30;99.90
12746;DHT22;6437;53.686;10.030;2022-12-28T04:28:08;5.90;99.90
12746;DHT22;6437;53.686;10.030;2022-12-28T04:31:12;6.00;99.90
12746;DHT22;6437;53.686;10.030;2022-12-28T04:34:14;6.00;99.90
12746;DHT22;6437;53.686;10.030;2022-12-28T04:37:17;5.90;99.90
12746;DHT22;6437;53.686;10.030;2022-12-28T04:40:19;5.90;99.90
12746;DHT22;6437;53.686;10.030;2022-12-28T04:43:20;5.70;99.90
12746;DHT22;6437;53.686;10.030;2022-12-28T04:46:23;5.90;99.90
12746;DHT22;6437;53.686;10.030;2022-12-28T04:49:24;5.90;99.90
12746;DHT22;6437;53.686;10.030;2022-12-28T04:52:28;5.90;99.90
12746;DHT22;6437;53.686;10.030;2022-12-28T04:55:29;5.90;99.90
12746;DHT22;6437;53.686;10.030;2022-12-28T04:58:31;5.90;99.90
12746;DHT22;6437;53.686;10.030;2022-12-28T05:01:33;6.20;99.90
12746;DHT22;6437;53.686;10.030;2022-12-28T05:04:35;6.00;99.90
12746;DHT22;6437;53.686;10.030;2022-12-28T05:07:38;5.90;99.90
12746;DHT22;6437;53.686;10.030;2022-12-28T05:10:40;6.00;99.90
12746;DHT22;6437;53.686;10.030;2022-12-28T05:13:42;5.90;99.90
12746;DHT22;6437;53.686;10.030;2022-12-28T05:16:43;6.00;99.90
12746;DHT22;6437;53.686;10.030;2022-12-28T05:19:45;5.90;99.90
12746;DHT22;6437;53.686;10.030;2022-12-28T05:22:48;5.90;99.90
12746;DHT22;6437;53.686;10.030;2022-12-28T05:25:51;5.90;99.90
12746;DHT22;6437;53.686;10.030;2022-12-28T05:28:53;5.90;99.90
12746;DHT22;6437;53.686;10.030;2022-12-28T05:31:56;5.90;99.90
12746;DHT22;6437;53.686;10.030;2022-12-28T05:34:58;5.90;99.90
12746;DHT22;6437;53.686;10.030;2022-12-28T05:38:01;5.90;99.90
12746;DHT22;6437;53.686;10.030;2022-12-28T05:41:04;6.00;99.90
12746;DHT22;6437;53.686;10.030;2022-12-28T05:44:06;5.90;99.90
12746;DHT22;6437;53.686;10.030;2022-12-28T05:47:08;5.90;99.90
12746;DHT22;6437;53.686;10.030;2022-12-28T05:50:10;5.90;99.90
12746;DHT22;6437;53.686;10.030;2022-12-28T05:53:13;6.00;99.90
12746;DHT22;6437;53.686;10.030;2022-12-28T05:56:17;6.50;99.90
12746;DHT22;6437;53.686;10.030;2022-12-28T05:59:19;5.90;99.90
12746;DHT22;6437;53.686;10.030;2022-12-28T06:02:20;5.90;99.90
12746;DHT22;6437;53.686;10.030;2022-12-28T06:05:25;5.90;99.90
12746;DHT22;6437;53.686;10.030;2022-12-28T06:08:28;5.90;99.90
12746;DHT22;6437;53.686;10.030;2022-12-28T06:11:30;5.90;99.90
12746;DHT22;6437;53.686;10.030;2022-12-28T06:14:32;5.90;99.90
12746;DHT22;6437;53.686;10.030;2022-12-28T06:17:34;5.90;99.90
12746;DHT22;6437;53.686;10.030;2022-12-28T06:20:35;5.90;99.90
12746;DHT22;6437;53.686;10.030;2022-12-28T06:23:39;6.00;99.90
12746;DHT22;6437;53.686;10.030;2022-12-28T06:26:41;6.00;99.90
12746;DHT22;6437;53.686;10.030;2022-12-28T06:29:42;6.00;99.90
12746;DHT22;6437;53.686;10.030;2022-12-28T06:32:44;6.00;99.90
12746;DHT22;6437;53.686;10.030;2022-12-28T06:35:46;6.00;99.90
12746;DHT22;6437;53.686;10.030;2022-12-28T06:38:50;6.00;99.90
12746;DHT22;6437;53.686;10.030;2022-12-28T06:41:52;6.00;99.90
12746;DHT22;6437;53.686;10.030;2022-12-28T06:44:54;6.10;99.90
12746;DHT22;6437;53.686;10.030;2022-12-28T06:47:55;6.40;99.90
12746;DHT22;6437;53.686;10.030;2022-12-28T06:50:58;6.10;99.90
12746;DHT22;6437;53.686;10.030;2022-12-28T06:54:02;6.10;99.90
12746;DHT22;6437;53.686;10.030;2022-12-28T06:57:04;6.10;99.90
12746;DHT22;6437;53.686;10.030;2022-12-28T07:00:06;6.10;99.90
12746;DHT22;6437;53.686;10.030;2022-12-28T07:03:08;6.10;99.90
12746;DHT22;6437;53.686;10.030;2022-12-28T07:06:11;6.10;99.90
12746;DHT22;6437;53.686;10.030;2022-12-28T07:09:15;6.10;99.90
12746;DHT22;6437;53.686;10.030;2022-12-28T07:12:17;6.20;99.90
12746;DHT22;6437;53.686;10.030;2022-12-28T07:15:19;6.20;99.90
12746;DHT22;6437;53.686;10.030;2022-12-28T07:18:20;6.20;99.90
12746;DHT22;6437;53.686;10.030;2022-12-28T07:21:24;6.20;99.90
12746;DHT22;6437;53.686;10.030;2022-12-28T07:24:27;6.20;99.90
12746;DHT22;6437;53.686;10.030;2022-12-28T07:27:29;6.20;99.90
12746;DHT22;6437;53.686;10.030;2022-12-28T07:30:31;6.20;99.90
12746;DHT22;6437;53.686;10.030;2022-12-28T07:33:33;6.20;99.90
12746;DHT22;6437;53.686;10.030;2022-12-28T07:36:36;6.30;99.90
12746;DHT22;6437;53.686;10.030;2022-12-28T07:39:39;5.80;99.90
12746;DHT22;6437;53.686;10.030;2022-12-28T07:42:40;6.30;99.90
12746;DHT22;6437;53.686;10.030;2022-12-28T07:45:42;6.30;99.90
12746;DHT22;6437;53.686;10.030;2022-12-28T07:48:44;6.40;99.90
12746;DHT22;6437;53.686;10.030;2022-12-28T07:51:47;6.40;99.90
12746;DHT22;6437;53.686;10.030;2022-12-28T07:54:50;6.40;99.90
12746;DHT22;6437;53.686;10.030;2022-12-28T07:57:52;6.40;99.90
12746;DHT22;6437;53.686;10.030;2022-12-28T08:00:54;6.40;99.90
12746;DHT22;6437;53.686;10.030;2022-12-28T08:03:57;6.40;99.90
12746;DHT22;6437;53.686;10.030;2022-12-28T08:06:59;6.40;99.90
12746;DHT22;6437;53.686;10.030;2022-12-28T08:10:02;6.40;99.90
12746;DHT22;6437;53.686;10.030;2022-12-28T08:13:04;7.00;99.90
12746;DHT22;6437;53.686;10.030;2022-12-28T08:16:06;6.50;99.90
12746;DHT22;6437;53.686;10.030;2022-12-28T08:19:09;6.50;99.90
12746;DHT22;6437;53.686;10.030;2022-12-28T08:22:11;6.40;99.90
12746;DHT22;6437;53.686;10.030;2022-12-28T08:25:14;6.50;99.90
12746;DHT22;6437;53.686;10.030;2022-12-28T08:28:16;6.50;99.90
12746;DHT22;6437;53.686;10.030;2022-12-28T08:31:19;6.50;99.90
12746;DHT22;6437;53.686;10.030;2022-12-28T08:34:21;6.50;99.90
12746;DHT22;6437;53.686;10.030;2022-12-28T08:37:26;6.60;99.90
12746;DHT22;6437;53.686;10.030;2022-12-28T08:40:30;6.60;99.90
12746;DHT22;6437;53.686;10.030;2022-12-28T08:43:33;6.70;99.90
12746;DHT22;6437;53.686;10.030;2022-12-28T08:46:35;6.70;99.90
12746;DHT22;6437;53.686;10.030;2022-12-28T08:49:37;6.80;99.90
12746;DHT22;6437;53.686;10.030;2022-12-28T08:52:39;5.90;99.90
12746;DHT22;6437;53.686;10.030;2022-12-28T08:55:42;6.80;99.90
12746;DHT22;6437;53.686;10.030;2022-12-28T08:58:44;6.80;99.90
12746;DHT22;6437;53.686;10.030;2022-12-28T09:01:46;7.10;99.90
12746;DHT22;6437;53.686;10.030;2022-12-28T09:04:48;6.90;99.90
12746;DHT22;6437;53.686;10.030;2022-12-28T09:07:50;6.90;99.90
12746;DHT22;6437;53.686;10.030;2022-12-28T09:10:53;7.00;99.90
12746;DHT22;6437;53.686;10.030;2022-12-28T09:13:55;6.90;99.90
12746;DHT22;6437;53.686;10.030;2022-12-28T09:16:57;7.00;99.90
12746;DHT22;6437;53.686;10.030;2022-12-28T09:20:00;7.00;99.90
12746;DHT22;6437;53.686;10.030;2022-12-28T09:23:02;7.00;99.90
12746;DHT22;6437;53.686;10.030;2022-12-28T09:26:08;7.00;99.90
12746;DHT22;6437;53.686;10.030;2022-12-28T09:29:11;7.10;99.90
12746;DHT22;6437;53.686;10.030;2022-12-28T09:32:13;7.10;99.90
12746;DHT22;6437;53.686;10.030;2022-12-28T09:35:15;7.10;99.90
12746;DHT22;6437;53.686;10.030;2022-12-28T09:38:17;7.10;99.90
12746;DHT22;6437;53.686;10.030;2022-12-28T09:41:25;7.20;99.90
12746;DHT22;6437;53.686;10.030;2022-12-28T09:44:51;7.20;99.90
12746;DHT22;6437;53.686;10.030;2022-12-28T09:47:58;7.30;99.90
12746;DHT22;6437;53.686;10.030;2022-12-28T09:51:00;7.30;99.90
12746;DHT22;6437;53.686;10.030;2022-12-28T09:54:04;7.30;99.90
12746;DHT22;6437;53.686;10.030;2022-12-28T09:57:10;7.40;99.90
12746;DHT22;6437;53.686;10.030;2022-12-28T10:00:17;7.40;99.90
12746;DHT22;6437;53.686;10.030;2022-12-28T10:03:21;7.40;99.90
12746;DHT22;6437;53.686;10.030;2022-12-28T10:06:25;7.40;99.90
12746;DHT22;6437;53.686;10.030;2022-12-28T10:09:28;7.50;99.90
12746;DHT22;6437;53.686;10.030;2022-12-28T10:12:33;7.50;99.90
12746;DHT22;6437;53.686;10.030;2022-12-28T10:15:34;7.50;99.90
12746;DHT22;6437;53.686;10.030;2022-12-28T10:18:36;7.50;99.90
12746;DHT22;6437;53.686;10.030;2022-12-28T10:21:39;7.50;99.90
12746;DHT22;6437;53.686;10.030;2022-12-28T10:24:41;7.60;99.90
12746;DHT22;6437;53.686;10.030;2022-12-28T10:27:44;7.60;99.90
12746;DHT22;6437;53.686;10.030;2022-12-28T10:30:48;7.60;99.90
12746;DHT22;6437;53.686;10.030;2022-12-28T10:34:13;8.20;99.90
12746;DHT22;6437;53.686;10.030;2022-12-28T10:37:16;7.70;99.90
12746;DHT22;6437;53.686;10.030;2022-12-28T10:40:23;7.70;99.90
12746;DHT22;6437;53.686;10.030;2022-12-28T10:43:29;7.70;99.90
12746;DHT22;6437;53.686;10.030;2022-12-28T10:46:32;7.80;99.90
12746;DHT22;6437;53.686;10.030;2022-12-28T10:49:36;7.80;99.90
12746;DHT22;6437;53.686;10.030;2022-12-28T10:52:38;7.80;99.90
12746;DHT22;6437;53.686;10.030;2022-12-28T10:55:40;7.80;99.90
12746;DHT22;6437;53.686;10.030;2022-12-28T10:58:44;7.80;99.90
12746;DHT22;6437;53.686;10.030;2022-12-28T11:01:47;7.90;99.90
12746;DHT22;6437;53.686;10.030;2022-12-28T11:04:54;7.90;99.90
12746;DHT22;6437;53.686;10.030;2022-12-28T11:08:03;7.90;99.90
12746;DHT22;6437;53.686;10.030;2022-12-28T11:11:06;8.00;99.90
12746;DHT22;6437;53.686;10.030;2022-12-28T11:14:14;8.00;99.90
12746;DHT22;6437;53.686;10.030;2022-12-28T11:17:18;8.10;99.90
12746;DHT22;6437;53.686;10.030;2022-12-28T11:20:23;8.10;99.90
12746;DHT22;6437;53.686;10.030;2022-12-28T11:23:26;8.10;99.90
12746;DHT22;6437;53.686;10.030;2022-12-28T11:26:32;8.20;99.90
12746;DHT22;6437;53.686;10.030;2022-12-28T11:29:36;8.20;99.90
12746;DHT22;6437;53.686;10.030;2022-12-28T11:32:45;8.20;99.90
12746;DHT22;6437;53.686;10.030;2022-12-28T11:35:51;8.20;99.90
12746;DHT22;6437;53.686;10.030;2022-12-28T11:38:55;8.20;99.90
12746;DHT22;6437;53.686;10.030;2022-12-28T11:41:58;8.00;99.90
12746;DHT22;6437;53.686;10.030;2022-12-28T11:45:02;8.20;99.90
12746;DHT22;6437;53.686;10.030;2022-12-28T11:51:22;8.20;99.90
12746;DHT22;6437;53.686;10.030;2022-12-28T11:54:36;8.20;99.90
12746;DHT22;6437;53.686;10.030;2022-12-28T11:57:38;8.20;99.90
12746;DHT22;6437;53.686;10.030;2022-12-28T12:00:46;8.20;99.90
12746;DHT22;6437;53.686;10.030;2022-12-28T12:04:19;8.10;99.90
12746;DHT22;6437;53.686;10.030;2022-12-28T12:07:48;8.20;99.90
12746;DHT22;6437;53.686;10.030;2022-12-28T12:11:25;8.20;99.90
12746;DHT22;6437;53.686;10.030;2022-12-28T12:14:31;8.20;99.90
12746;DHT22;6437;53.686;10.030;2022-12-28T12:17:40;8.20;99.90
12746;DHT22;6437;53.686;10.030;2022-12-28T12:20:51;8.30;99.90
12746;DHT22;6437;53.686;10.030;2022-12-28T12:23:56;8.20;99.90
12746;DHT22;6437;53.686;10.030;2022-12-28T12:27:14;8.20;99.90
12746;DHT22;6437;53.686;10.030;2022-12-28T12:30:19;8.30;99.90
12746;DHT22;6437;53.686;10.030;2022-12-28T12:33:24;8.30;99.90
12746;DHT22;6437;53.686;10.030;2022-12-28T12:36:41;8.30;99.90
12746;DHT22;6437;53.686;10.030;2022-12-28T12:43:27;8.30;99.90
12746;DHT22;6437;53.686;10.030;2022-12-28T12:46:47;8.30;99.90
12746;DHT22;6437;53.686;10.030;2022-12-28T12:50:11;8.30;99.90
12746;DHT22;6437;53.686;10.030;2022-12-28T12:53:37;8.40;99.90
12746;DHT22;6437;53.686;10.030;2022-12-28T12:56:46;8.40;99.90
12746;DHT22;6437;53.686;10.030;2022-12-28T13:00:02;8.40;99.90
12746;DHT22;6437;53.686;10.030;2022-12-28T13:03:27;8.40;99.90
12746;DHT22;6437;53.686;10.030;2022-12-28T13:06:33;8.40;99.90
12746;DHT22;6437;53.686;10.030;2022-12-28T13:09:36;8.40;99.90
12746;DHT22;6437;53.686;10.030;2022-12-28T13:12:39;8.40;99.90
12746;DHT22;6437;53.686;10.030;2022-12-28T13:15:43;8.50;99.90
12746;DHT22;6437;53.686;10.030;2022-12-28T13:18:52;8.40;99.90
12746;DHT22;6437;53.686;10.030;2022-12-28T13:21:55;8.40;99.90
12746;DHT22;6437;53.686;10.030;2022-12-28T13:24:58;8.10;99.90
12746;DHT22;6437;53.686;10.030;2022-12-28T13:28:02;8.40;99.90
12746;DHT22;6437;53.686;10.030;2022-12-28T13:31:06;8.50;99.90
12746;DHT22;6437;53.686;10.030;2022-12-28T13:34:16;8.50;99.90
12746;DHT22;6437;53.686;10.030;2022-12-28T13:37:18;8.50;99.90
12746;DHT22;6437;53.686;10.030;2022-12-28T13:40:21;8.50;99.90
12746;DHT22;6437;53.686;10.030;2022-12-28T13:47:05;8.70;99.90
12746;DHT22;6437;53.686;10.030;2022-12-28T13:50:12;8.50;99.90
12746;DHT22;6437;53.686;10.030;2022-12-28T13:53:16;8.50;99.90
12746;DHT22;6437;53.686;10.030;2022-12-28T13:56:21;9.40;99.90
12746;DHT22;6437;53.686;10.030;2022-12-28T13:59:24;8.60;99.90
12746;DHT22;6437;53.686;10.030;2022-12-28T14:02:27;8.60;99.90
12746;DHT22;6437;53.686;10.030;2022-12-28T14:05:29;8.60;99.90
12746;DHT22;6437;53.686;10.030;2022-12-28T14:08:34;8.60;99.90
12746;DHT22;6437;53.686;10.030;2022-12-28T14:11:36;8.60;99.90
12746;DHT22;6437;53.686;10.030;2022-12-28T14:14:39;8.70;99.90
12746;DHT22;6437;53.686;10.030;2022-12-28T14:17:43;8.70;99.90
12746;DHT22;6437;53.686;10.030;2022-12-28T14:20:47;8.70;99.90
12746;DHT22;6437;53.686;10.030;2022-12-28T14:23:49;8.70;99.90
12746;DHT22;6437;53.686;10.030;2022-12-28T14:26:53;8.70;99.90
12746;DHT22;6437;53.686;10.030;2022-12-28T14:29:57;8.70;99.90
12746;DHT22;6437;53.686;10.030;2022-12-28T14:33:11;8.70;99.90
12746;DHT22;6437;53.686;10.030;2022-12-28T14:36:19;8.70;99.90
12746;DHT22;6437;53.686;10.030;2022-12-28T14:39:31;8.70;99.90
12746;DHT22;6437;53.686;10.030;2022-12-28T14:42:34;8.70;99.90
12746;DHT22;6437;53.686;10.030;2022-12-28T14:45:40;8.70;99.90
12746;DHT22;6437;53.686;10.030;2022-12-28T14:48:44;8.70;99.90
12746;DHT22;6437;53.686;10.030;2022-12-28T14:51:46;8.70;99.90
12746;DHT22;6437;53.686;10.030;2022-12-28T14:54:49;8.70;99.90
12746;DHT22;6437;53.686;10.030;2022-12-28T14:57:52;8.70;99.90
12746;DHT22;6437;53.686;10.030;2022-12-28T15:01:00;8.70;99.90
12746;DHT22;6437;53.686;10.030;2022-12-28T15:04:04;8.80;99.90
12746;DHT22;6437;53.686;10.030;2022-12-28T15:07:07;8.70;99.90
12746;DHT22;6437;53.686;10.030;2022-12-28T15:10:09;8.80;99.90
12746;DHT22;6437;53.686;10.030;2022-12-28T15:13:14;8.80;99.90
12746;DHT22;6437;53.686;10.030;2022-12-28T15:16:18;8.80;99.90
12746;DHT22;6437;53.686;10.030;2022-12-28T15:19:23;8.80;99.90
12746;DHT22;6437;53.686;10.030;2022-12-28T15:22:25;7.90;99.90
12746;DHT22;6437;53.686;10.030;2022-12-28T15:25:32;8.80;99.90
12746;DHT22;6437;53.686;10.030;2022-12-28T15:28:34;8.80;99.90
12746;DHT22;6437;53.686;10.030;2022-12-28T15:31:35;8.80;99.90
12746;DHT22;6437;53.686;10.030;2022-12-28T15:34:41;8.80;99.90
12746;DHT22;6437;53.686;10.030;2022-12-28T15:37:59;8.80;99.90
12746;DHT22;6437;53.686;10.030;2022-12-28T15:41:01;8.80;99.90
12746;DHT22;6437;53.686;10.030;2022-12-28T15:44:04;8.80;99.90
12746;DHT22;6437;53.686;10.030;2022-12-28T15:47:06;8.80;99.90
12746;DHT22;6437;53.686;10.030;2022-12-28T15:50:10;8.80;99.90
12746;DHT22;6437;53.686;10.030;2022-12-28T15:53:11;8.80;99.90
12746;DHT22;6437;53.686;10.030;2022-12-28T15:56:19;8.10;99.90
12746;DHT22;6437;53.686;10.030;2022-12-28T15:59:21;8.80;99.90
12746;DHT22;6437;53.686;10.030;2022-12-28T16:02:24;8.80;99.90
12746;DHT22;6437;53.686;10.030;2022-12-28T16:05:27;8.80;99.90
12746;DHT22;6437;53.686;10.030;2022-12-28T16:08:28;8.80;99.90
12746;DHT22;6437;53.686;10.030;2022-12-28T16:11:30;8.80;99.90
12746;DHT22;6437;53.686;10.030;2022-12-28T16:14:33;8.80;99.90
12746;DHT22;6437;53.686;10.030;2022-12-28T16:17:35;8.80;99.90
12746;DHT22;6437;53.686;10.030;2022-12-28T16:20:39;8.80;99.90
12746;DHT22;6437;53.686;10.030;2022-12-28T16:23:42;8.70;99.90
12746;DHT22;6437;53.686;10.030;2022-12-28T16:26:44;8.80;99.90
12746;DHT22;6437;53.686;10.030;2022-12-28T16:29:46;8.70;99.90
12746;DHT22;6437;53.686;10.030;2022-12-28T16:32:48;8.70;99.90
12746;DHT22;6437;53.686;10.030;2022-12-28T16:35:51;8.70;99.90
12746;DHT22;6437;53.686;10.030;2022-12-28T16:38:53;8.70;99.90
12746;DHT22;6437;53.686;10.030;2022-12-28T16:41:55;8.70;99.90
12746;DHT22;6437;53.686;10.030;2022-12-28T16:44:57;8.70;99.90
12746;DHT22;6437;53.686;10.030;2022-12-28T16:47:59;8.70;99.90
12746;DHT22;6437;53.686;10.030;2022-12-28T16:51:03;8.70;99.90
12746;DHT22;6437;53.686;10.030;2022-12-28T16:54:05;8.70;99.90
12746;DHT22;6437;53.686;10.030;2022-12-28T16:57:07;8.70;99.90
12746;DHT22;6437;53.686;10.030;2022-12-28T17:00:10;8.60;99.90
12746;DHT22;6437;53.686;10.030;2022-12-28T17:03:13;8.70;99.90
12746;DHT22;6437;53.686;10.030;2022-12-28T17:06:16;8.70;99.90
12746;DHT22;6437;53.686;10.030;2022-12-28T17:09:18;8.70;99.90
12746;DHT22;6437;53.686;10.030;2022-12-28T17:12:20;8.70;99.90
12746;DHT22;6437;53.686;10.030;2022-12-28T17:15:22;8.70;99.90
12746;DHT22;6437;53.686;10.030;2022-12-28T17:18:24;8.70;99.90
12746;DHT22;6437;53.686;10.030;2022-12-28T17:21:28;8.70;99.90
12746;DHT22;6437;53.686;10.030;2022-12-28T17:24:30;8.70;99.90
12746;DHT22;6437;53.686;10.030;2022-12-28T17:27:32;8.70;99.90
12746;DHT22;6437;53.686;10.030;2022-12-28T17:30:34;8.70;99.90
12746;DHT22;6437;53.686;10.030;2022-12-28T17:33:36;8.70;99.90
12746;DHT22;6437;53.686;10.030;2022-12-28T17:36:39;8.70;99.90
12746;DHT22;6437;53.686;10.030;2022-12-28T17:39:41;8.70;99.90
12746;DHT22;6437;53.686;10.030;2022-12-28T17:42:42;8.70;99.90
12746;DHT22;6437;53.686;10.030;2022-12-28T17:45:44;8.70;99.90
12746;DHT22;6437;53.686;10.030;2022-12-28T17:48:47;8.70;99.90
12746;DHT22;6437;53.686;10.030;2022-12-28T17:51:50;8.70;99.90
12746;DHT22;6437;53.686;10.030;2022-12-28T17:54:52;8.80;99.90
12746;DHT22;6437;53.686;10.030;2022-12-28T17:57:57;8.70;99.90
12746;DHT22;6437;53.686;10.030;2022-12-28T18:00:59;8.70;99.90
12746;DHT22;6437;53.686;10.030;2022-12-28T18:04:01;8.70;99.90
12746;DHT22;6437;53.686;10.030;2022-12-28T18:07:05;8.70;99.90
12746;DHT22;6437;53.686;10.030;2022-12-28T18:10:08;8.70;99.90
12746;DHT22;6437;53.686;10.030;2022-12-28T18:13:10;8.70;99.90
12746;DHT22;6437;53.686;10.030;2022-12-28T18:16:14;8.70;99.90
12746;DHT22;6437;53.686;10.030;2022-12-28T18:19:16;8.70;99.90
12746;DHT22;6437;53.686;10.030;2022-12-28T18:22:19;8.70;99.90
12746;DHT22;6437;53.686;10.030;2022-12-28T18:25:22;8.70;99.90
12746;DHT22;6437;53.686;10.030;2022-12-28T18:28:24;8.70;99.90
12746;DHT22;6437;53.686;10.030;2022-12-28T18:31:32;8.70;99.90
12746;DHT22;6437;53.686;10.030;2022-12-28T18:34:37;8.70;99.90
12746;DHT22;6437;53.686;10.030;2022-12-28T18:37:40;8.70;99.90
12746;DHT22;6437;53.686;10.030;2022-12-28T18:40:42;8.70;99.90
12746;DHT22;6437;53.686;10.030;2022-12-28T18:43:44;8.70;99.90
12746;DHT22;6437;53.686;10.030;2022-12-28T18:46:46;8.60;99.90
12746;DHT22;6437;53.686;10.030;2022-12-28T18:49:52;8.60;99.90
12746;DHT22;6437;53.686;10.030;2022-12-28T18:52:55;8.70;99.90
12746;DHT22;6437;53.686;10.030;2022-12-28T18:55:57;8.70;99.90
12746;DHT22;6437;53.686;10.030;2022-12-28T18:59:00;8.60;99.90
12746;DHT22;6437;53.686;10.030;2022-12-28T19:02:02;8.60;99.90
12746;DHT22;6437;53.686;10.030;2022-12-28T19:05:04;8.70;99.90
12746;DHT22;6437;53.686;10.030;2022-12-28T19:08:07;8.60;99.90
12746;DHT22;6437;53.686;10.030;2022-12-28T19:11:09;8.60;99.90
12746;DHT22;6437;53.686;10.030;2022-12-28T19:14:14;8.30;99.90
12746;DHT22;6437;53.686;10.030;2022-12-28T19:17:16;8.60;99.90
12746;DHT22;6437;53.686;10.030;2022-12-28T19:20:18;8.60;99.90
12746;DHT22;6437;53.686;10.030;2022-12-28T19:23:21;8.60;99.90
12746;DHT22;6437;53.686;10.030;2022-12-28T19:26:23;8.60;99.90
12746;DHT22;6437;53.686;10.030;2022-12-28T19:29:26;8.60;99.90
12746;DHT22;6437;53.686;10.030;2022-12-28T19:32:29;8.60;99.90
12746;DHT22;6437;53.686;10.030;2022-12-28T19:35:31;8.60;99.90
12746;DHT22;6437;53.686;10.030;2022-12-28T19:38:36;8.50;99.90
12746;DHT22;6437;53.686;10.030;2022-12-28T19:41:38;8.50;99.90
12746;DHT22;6437;53.686;10.030;2022-12-28T19:44:39;8.50;99.90
12746;DHT22;6437;53.686;10.030;2022-12-28T19:47:41;8.60;99.90
12746;DHT22;6437;53.686;10.030;2022-12-28T19:50:43;8.60;99.90
12746;DHT22;6437;53.686;10.030;2022-12-28T19:53:46;9.30;99.90
12746;DHT22;6437;53.686;10.030;2022-12-28T19:56:48;8.50;99.90